createdAt,value
2019-02-19T00:01:11.566Z,9.37
2019-02-19T00:03:40.153Z,8.23
2019-02-19T00:06:08.461Z,9.03
2019-02-19T00:08:36.742Z,8.97
2019-02-19T00:11:05.021Z,8.13
2019-02-19T00:13:33.673Z,7.97
2019-02-19T00:16:01.948Z,7.73
2019-02-19T00:18:30.264Z,7.53
2019-02-19T00:20:58.522Z,7.17
2019-02-19T00:23:26.795Z,7.10
2019-02-19T00:25:55.067Z,7.17
2019-02-19T00:28:23.367Z,7.13
2019-02-19T00:30:51.715Z,7.03
2019-02-19T00:33:19.999Z,6.70
2019-02-19T00:35:48.299Z,7.10
2019-02-19T00:38:16.582Z,7.13
2019-02-19T00:40:44.861Z,6.43
2019-02-19T00:43:13.163Z,7.23
2019-02-19T00:45:41.432Z,6.83
2019-02-19T00:48:09.712Z,7.60
2019-02-19T00:50:38.003Z,7.20
2019-02-19T00:53:06.280Z,6.10
2019-02-19T00:55:34.576Z,6.50
2019-02-19T00:58:02.856Z,6.37
2019-02-19T01:00:31.144Z,5.90
2019-02-19T01:02:59.805Z,6.37
2019-02-19T01:05:28.104Z,6.30
2019-02-19T01:07:56.377Z,5.90
2019-02-19T01:10:24.899Z,5.80
2019-02-19T01:12:53.538Z,6.20
2019-02-19T01:15:25.566Z,5.63
2019-02-19T01:17:52.142Z,5.33
2019-02-19T01:20:20.475Z,5.20
2019-02-19T01:22:48.764Z,6.03
2019-02-19T01:25:17.045Z,5.70
2019-02-19T01:27:45.330Z,5.57
2019-02-19T01:30:13.943Z,5.50
2019-02-19T01:32:42.229Z,5.07
2019-02-19T01:35:10.585Z,5.47
2019-02-19T01:37:39.132Z,5.47
2019-02-19T01:40:09.049Z,5.80
2019-02-19T01:42:37.339Z,5.33
2019-02-19T01:45:08.029Z,5.77
2019-02-19T01:47:36.316Z,5.57
2019-02-19T01:50:06.933Z,5.43
2019-02-19T01:52:35.583Z,5.13
2019-02-19T01:55:05.607Z,5.47
2019-02-19T01:57:33.895Z,5.20
2019-02-19T02:00:02.452Z,5.23
2019-02-19T02:02:30.767Z,5.30
2019-02-19T02:04:59.316Z,5.43
2019-02-19T02:07:27.902Z,5.53
2019-02-19T02:09:56.491Z,5.33
2019-02-19T02:12:24.769Z,5.63
2019-02-19T02:14:53.341Z,5.67
2019-02-19T02:17:21.619Z,5.53
2019-02-19T02:19:49.906Z,5.43
2019-02-19T02:22:18.182Z,5.63
2019-02-19T02:24:46.467Z,5.33
2019-02-19T02:27:14.761Z,4.60
2019-02-19T02:29:43.310Z,4.90
2019-02-19T02:32:11.893Z,5.10
2019-02-19T02:34:40.195Z,4.77
2019-02-19T02:37:08.464Z,5.23
2019-02-19T02:39:37.033Z,4.80
2019-02-19T02:42:05.314Z,5.20
2019-02-19T02:44:33.622Z,4.80
2019-02-19T02:47:01.911Z,5.07
2019-02-19T02:49:30.169Z,5.67
2019-02-19T02:51:58.465Z,5.17
2019-02-19T02:54:26.750Z,5.23
2019-02-19T02:56:55.028Z,4.53
2019-02-19T02:59:23.322Z,4.70
2019-02-19T03:01:51.600Z,5.20
2019-02-19T03:04:20.229Z,5.27
2019-02-19T03:06:50.145Z,5.50
2019-02-19T03:09:18.427Z,5.00
2019-02-19T03:11:46.719Z,5.20
2019-02-19T03:14:15.002Z,5.10
2019-02-19T03:16:43.287Z,5.20
2019-02-19T03:19:11.571Z,5.50
2019-02-19T03:21:39.847Z,5.40
2019-02-19T03:24:08.119Z,4.60
2019-02-19T03:26:36.407Z,4.77
2019-02-19T03:29:04.685Z,5.53
2019-02-19T03:31:32.969Z,5.27
2019-02-19T03:34:01.247Z,5.10
2019-02-19T03:36:29.565Z,4.63
2019-02-19T03:38:57.854Z,5.13
2019-02-19T03:41:26.109Z,6.07
2019-02-19T03:43:54.397Z,6.87
2019-02-19T03:46:22.922Z,7.33
2019-02-19T03:48:51.225Z,9.73
2019-02-19T03:51:19.566Z,9.23
2019-02-19T03:53:47.866Z,11.13
2019-02-19T03:56:16.158Z,10.63
2019-02-19T03:58:44.462Z,12.87
2019-02-19T04:01:12.814Z,12.03
2019-02-19T04:03:41.505Z,13.03
2019-02-19T04:06:09.986Z,13.20
2019-02-19T04:08:38.277Z,13.50
2019-02-19T04:11:06.570Z,13.90
2019-02-19T04:13:34.928Z,13.17
2019-02-19T04:16:03.224Z,13.27
2019-02-19T04:18:31.520Z,13.83
2019-02-19T04:21:00.059Z,14.00
2019-02-19T04:23:28.355Z,13.93
2019-02-19T04:25:56.648Z,14.27
2019-02-19T04:28:24.945Z,13.73
2019-02-19T04:30:53.221Z,13.97
2019-02-19T04:33:21.519Z,14.67
2019-02-19T04:35:49.804Z,14.27
2019-02-19T04:38:18.393Z,15.27
2019-02-19T04:40:46.682Z,15.03
2019-02-19T04:43:14.984Z,14.60
2019-02-19T04:45:43.265Z,15.07
2019-02-19T04:48:11.561Z,16.40
2019-02-19T04:50:40.211Z,15.90
2019-02-19T04:53:08.521Z,16.53
2019-02-19T04:55:36.805Z,18.20
2019-02-19T04:58:05.111Z,18.10
2019-02-19T05:00:33.705Z,18.07
2019-02-19T05:03:02.005Z,18.90
2019-02-19T05:05:30.286Z,19.37
2019-02-19T05:07:58.576Z,17.90
2019-02-19T05:10:27.239Z,17.97
2019-02-19T05:12:55.526Z,19.73
2019-02-19T05:15:23.828Z,20.67
2019-02-19T05:17:52.105Z,19.53
2019-02-19T05:20:20.404Z,19.60
2019-02-19T05:22:48.691Z,19.77
2019-02-19T05:25:16.992Z,19.60
2019-02-19T05:27:45.312Z,20.33
2019-02-19T05:30:13.645Z,20.70
2019-02-19T05:32:41.935Z,20.20
2019-02-19T05:35:10.319Z,20.03
2019-02-19T05:37:38.589Z,20.67
2019-02-19T05:40:08.827Z,20.40
2019-02-19T05:42:37.107Z,20.93
2019-02-19T05:45:08.931Z,19.67
2019-02-19T05:47:37.217Z,21.23
2019-02-19T05:50:08.065Z,22.00
2019-02-19T05:52:36.629Z,21.40
2019-02-19T05:55:06.948Z,20.90
2019-02-19T05:57:35.274Z,20.00
2019-02-19T06:00:05.297Z,21.10
2019-02-19T06:02:33.601Z,22.00
2019-02-19T06:05:01.894Z,22.07
2019-02-19T06:07:30.191Z,23.00
2019-02-19T06:09:58.778Z,23.80
2019-02-19T06:12:27.344Z,23.33
2019-02-19T06:14:55.630Z,24.80
2019-02-19T06:17:24.206Z,24.23
2019-02-19T06:19:52.487Z,23.83
2019-02-19T06:22:21.182Z,24.57
2019-02-19T06:24:49.465Z,23.27
2019-02-19T06:27:17.769Z,23.60
2019-02-19T06:29:46.426Z,23.30
2019-02-19T06:32:14.711Z,22.83
2019-02-19T06:34:43.004Z,23.40
2019-02-19T06:37:11.297Z,22.20
2019-02-19T06:39:39.596Z,22.20
2019-02-19T06:42:08.198Z,22.37
2019-02-19T06:44:36.783Z,21.53
2019-02-19T06:47:07.138Z,21.27
2019-02-19T06:49:35.800Z,21.43
2019-02-19T06:52:04.084Z,21.17
2019-02-19T06:54:32.387Z,21.27
2019-02-19T06:57:00.677Z,19.87
2019-02-19T06:59:28.983Z,20.63
2019-02-19T07:02:04.773Z,19.03
2019-02-19T07:04:34.762Z,21.23
2019-02-19T07:07:03.047Z,19.80
2019-02-19T07:09:31.346Z,18.40
2019-02-19T07:11:59.633Z,19.20
2019-02-19T07:14:27.937Z,19.70
2019-02-19T07:16:56.222Z,19.90
2019-02-19T07:19:24.522Z,19.87
2019-02-19T07:21:52.810Z,20.30
2019-02-19T07:24:21.111Z,18.60
2019-02-19T07:26:49.664Z,18.90
2019-02-19T07:29:18.488Z,19.63
2019-02-19T07:31:46.779Z,19.13
2019-02-19T07:34:15.081Z,18.90
2019-02-19T07:36:43.372Z,18.90
2019-02-19T07:39:11.754Z,18.63
2019-02-19T07:41:40.347Z,19.20
2019-02-19T07:44:08.653Z,19.17
2019-02-19T07:46:36.932Z,19.43
2019-02-19T07:49:05.500Z,17.13
2019-02-19T07:51:34.076Z,18.03
2019-02-19T07:54:02.795Z,17.67
2019-02-19T07:56:31.093Z,18.27
2019-02-19T07:58:59.387Z,16.20
2019-02-19T08:01:28.018Z,16.87
2019-02-19T08:03:56.301Z,16.77
2019-02-19T08:06:24.854Z,16.30
2019-02-19T08:08:53.456Z,16.20
2019-02-19T08:11:21.762Z,18.00
2019-02-19T08:13:50.044Z,16.40
2019-02-19T08:16:19.047Z,16.23
2019-02-19T08:18:47.405Z,15.17
2019-02-19T08:21:15.716Z,15.93
2019-02-19T08:23:44.007Z,15.93
2019-02-19T08:26:12.320Z,15.40
2019-02-19T08:28:40.591Z,15.03
2019-02-19T08:31:09.142Z,15.77
2019-02-19T08:33:37.708Z,16.30
2019-02-19T08:36:06.250Z,14.80
2019-02-19T08:38:34.821Z,14.27
2019-02-19T08:41:03.105Z,14.53
2019-02-19T08:43:31.397Z,13.63
2019-02-19T08:45:59.682Z,13.83
2019-02-19T08:48:28.044Z,12.67
2019-02-19T08:50:56.329Z,12.50
2019-02-19T08:53:24.631Z,12.63
2019-02-19T08:55:52.917Z,13.33
2019-02-19T08:58:21.230Z,13.77
2019-02-19T09:00:49.523Z,12.90
2019-02-19T09:03:18.191Z,12.87
2019-02-19T09:05:46.478Z,13.43
2019-02-19T09:08:14.786Z,13.43
2019-02-19T09:10:43.079Z,14.43
2019-02-19T09:13:11.399Z,13.63
2019-02-19T09:15:39.670Z,13.43
2019-02-19T09:18:07.987Z,14.00
2019-02-19T09:20:36.890Z,13.57
2019-02-19T09:23:05.238Z,11.73
2019-02-19T09:25:33.541Z,12.93
2019-02-19T09:28:01.893Z,12.80
2019-02-19T09:30:30.204Z,13.03
2019-02-19T09:32:58.831Z,12.67
2019-02-19T09:35:27.415Z,11.20
2019-02-19T09:37:55.712Z,12.30
2019-02-19T09:40:24.020Z,12.13
2019-02-19T09:42:52.307Z,12.37
2019-02-19T09:45:20.609Z,12.47
2019-02-19T09:47:48.905Z,12.63
2019-02-19T09:50:17.482Z,11.73
2019-02-19T09:52:45.768Z,12.17
2019-02-19T09:55:14.081Z,12.50
2019-02-19T09:57:42.405Z,11.73
2019-02-19T10:00:13.024Z,12.10
2019-02-19T10:02:41.308Z,11.40
2019-02-19T10:05:11.553Z,10.73
2019-02-19T10:07:39.909Z,11.40
2019-02-19T10:10:11.439Z,10.30
2019-02-19T10:12:39.731Z,10.50
2019-02-19T10:15:11.134Z,9.00
2019-02-19T10:17:39.427Z,10.23
2019-02-19T10:20:10.119Z,9.20
2019-02-19T10:22:38.700Z,8.70
2019-02-19T10:25:12.002Z,7.60
2019-02-19T10:27:40.290Z,6.70
2019-02-19T10:30:16.324Z,6.20
2019-02-19T10:32:44.906Z,5.50
2019-02-19T10:35:13.259Z,5.50
2019-02-19T10:37:41.536Z,5.03
2019-02-19T10:40:17.696Z,5.57
2019-02-19T10:42:45.990Z,4.80
2019-02-19T10:45:19.981Z,4.63
2019-02-19T10:47:48.263Z,4.30
2019-02-19T10:50:17.004Z,4.90
2019-02-19T10:52:45.553Z,3.70
2019-02-19T10:55:14.028Z,4.07
2019-02-19T10:57:42.309Z,4.27
2019-02-19T11:00:19.212Z,4.13
2019-02-19T11:02:47.523Z,3.90
2019-02-19T11:05:15.956Z,4.40
2019-02-19T11:07:44.244Z,4.80
2019-02-19T11:10:13.777Z,3.90
2019-02-19T11:12:42.059Z,3.70
2019-02-19T11:15:12.276Z,3.77
2019-02-19T11:17:40.819Z,4.13
2019-02-19T11:20:15.132Z,4.13
2019-02-19T11:22:43.434Z,4.33
2019-02-19T11:25:12.816Z,3.83
2019-02-19T11:27:41.516Z,4.63
2019-02-19T11:30:15.940Z,4.00
2019-02-19T11:32:44.309Z,3.90
2019-02-19T11:35:12.648Z,3.43
2019-02-19T11:37:40.942Z,4.37
2019-02-19T11:40:11.561Z,4.03
2019-02-19T11:42:39.930Z,3.50
2019-02-19T11:45:18.482Z,3.20
2019-02-19T11:47:46.786Z,3.53
2019-02-19T11:50:15.208Z,3.37
2019-02-19T11:52:43.502Z,3.50
2019-02-19T11:55:17.005Z,3.13
2019-02-19T11:57:45.307Z,3.03
2019-02-19T12:00:16.764Z,3.60
2019-02-19T12:02:45.062Z,3.80
2019-02-19T12:05:13.421Z,3.30
2019-02-19T12:07:41.702Z,4.03
2019-02-19T12:10:11.938Z,3.60
2019-02-19T12:12:40.427Z,3.80
2019-02-19T12:15:10.666Z,3.80
2019-02-19T12:17:38.945Z,3.50
2019-02-19T12:20:13.784Z,3.70
2019-02-19T12:22:42.074Z,3.50
2019-02-19T12:25:10.981Z,3.60
2019-02-19T12:27:39.287Z,4.10
2019-02-19T12:30:13.034Z,4.40
2019-02-19T12:32:41.290Z,3.70
2019-02-19T12:35:10.346Z,3.80
2019-02-19T12:37:38.648Z,3.90
2019-02-19T12:40:09.784Z,4.20
2019-02-19T12:42:38.070Z,4.43
2019-02-19T12:45:08.911Z,3.87
2019-02-19T12:47:37.554Z,4.53
2019-02-19T12:50:09.303Z,4.13
2019-02-19T12:52:37.895Z,4.47
2019-02-19T12:55:07.409Z,4.40
2019-02-19T12:57:36.870Z,3.40
2019-02-19T13:00:08.675Z,3.40
2019-02-19T13:02:36.959Z,3.30
2019-02-19T13:05:07.270Z,3.37
2019-02-19T13:07:36.920Z,3.00
2019-02-19T13:10:08.421Z,2.77
2019-02-19T13:12:36.715Z,2.57
2019-02-19T13:15:14.116Z,3.07
2019-02-19T13:17:42.668Z,3.13
2019-02-19T13:20:13.213Z,3.10
2019-02-19T13:22:41.572Z,2.97
2019-02-19T13:25:11.533Z,2.50
2019-02-19T13:27:39.900Z,2.73
2019-02-19T13:30:14.247Z,2.57
2019-02-19T13:32:42.548Z,2.77
2019-02-19T13:35:12.250Z,2.63
2019-02-19T13:37:40.866Z,2.80
2019-02-19T13:40:11.903Z,2.77
2019-02-19T13:42:40.204Z,3.00
2019-02-19T13:45:11.130Z,3.30
2019-02-19T13:47:39.420Z,2.73
2019-02-19T13:50:10.873Z,2.80
2019-02-19T13:52:40.812Z,3.10
2019-02-19T13:55:10.733Z,2.93
2019-02-19T13:57:39.376Z,2.70
2019-02-19T14:00:11.319Z,2.83
2019-02-19T14:02:39.594Z,2.30
2019-02-19T14:05:08.651Z,2.90
2019-02-19T14:07:37.281Z,2.97
2019-02-19T14:10:08.874Z,2.77
2019-02-19T14:12:37.523Z,2.43
2019-02-19T14:15:10.183Z,2.50
2019-02-19T14:17:38.486Z,2.50
2019-02-19T14:20:09.639Z,2.80
2019-02-19T14:22:51.463Z,2.60
2019-02-19T14:25:27.282Z,3.57
2019-02-19T14:28:06.140Z,3.10
2019-02-19T14:30:38.557Z,3.00
2019-02-19T14:33:23.533Z,2.93
2019-02-19T14:36:08.521Z,3.30
2019-02-19T14:38:38.457Z,2.60
2019-02-19T14:41:17.201Z,2.60
2019-02-19T14:43:53.196Z,2.90
2019-02-19T14:46:39.545Z,2.77
2019-02-19T14:49:09.532Z,3.30
2019-02-19T14:51:55.586Z,3.40
2019-02-19T14:54:42.314Z,2.90
2019-02-19T14:57:18.193Z,2.70
2019-02-19T14:59:54.749Z,2.87
2019-02-19T15:02:24.684Z,2.40
2019-02-19T15:04:54.883Z,2.90
2019-02-19T15:07:27.262Z,2.30
2019-02-19T15:10:13.304Z,2.50
2019-02-19T15:13:00.080Z,2.70
2019-02-19T15:15:33.043Z,2.20
2019-02-19T15:18:12.374Z,2.80
2019-02-19T15:20:53.857Z,2.53
2019-02-19T15:23:23.795Z,2.80
2019-02-19T15:25:59.735Z,2.97
2019-02-19T15:28:35.421Z,2.50
2019-02-19T15:31:22.101Z,2.70
2019-02-19T15:33:54.711Z,2.43
2019-02-19T15:36:30.352Z,2.63
2019-02-19T15:39:02.763Z,2.87
2019-02-19T15:41:32.945Z,2.60
2019-02-19T15:44:08.866Z,2.77
2019-02-19T15:46:41.287Z,2.47
2019-02-19T15:49:11.228Z,2.37
2019-02-19T15:51:55.879Z,3.00
2019-02-19T15:54:41.045Z,2.27
2019-02-19T15:57:13.680Z,2.30
2019-02-19T15:59:59.877Z,2.30
2019-02-19T16:02:32.554Z,3.13
2019-02-19T16:05:18.035Z,2.53
2019-02-19T16:07:48.270Z,2.77
2019-02-19T16:10:30.367Z,2.23
2019-02-19T16:13:09.517Z,2.13
2019-02-19T16:15:48.307Z,2.80
2019-02-19T16:18:23.841Z,3.00
2019-02-19T16:20:54.077Z,2.67
2019-02-19T16:23:23.996Z,2.70
2019-02-19T16:25:56.688Z,2.80
2019-02-19T16:28:35.134Z,2.67
2019-02-19T16:31:21.408Z,2.90
2019-02-19T16:34:07.571Z,3.30
2019-02-19T16:36:43.424Z,3.23
2019-02-19T16:39:30.034Z,2.50
2019-02-19T16:42:16.967Z,3.30
2019-02-19T16:44:49.937Z,2.67
2019-02-19T16:47:25.802Z,2.63
2019-02-19T16:50:07.847Z,2.90
2019-02-19T16:52:42.625Z,3.00
2019-02-19T16:55:24.378Z,3.10
2019-02-19T16:57:57.298Z,2.73
2019-02-19T17:00:39.312Z,5.63
2019-02-19T17:03:09.321Z,21.80
2019-02-19T17:05:48.008Z,21.10
2019-02-19T17:08:20.643Z,7.33
2019-02-19T17:10:53.611Z,9.57
2019-02-19T17:13:26.775Z,11.43
2019-02-19T17:16:13.177Z,7.87
2019-02-19T17:18:43.120Z,9.97
2019-02-19T17:21:22.193Z,7.07
2019-02-19T17:23:52.111Z,3.97
2019-02-19T17:26:27.975Z,3.30
2019-02-19T17:28:57.890Z,3.53
2019-02-19T17:31:33.281Z,3.47
2019-02-19T17:34:03.195Z,3.10
2019-02-19T17:36:33.230Z,3.30
2019-02-19T17:39:12.026Z,4.20
2019-02-19T17:41:44.651Z,5.73
2019-02-19T17:44:17.561Z,10.00
2019-02-19T17:46:53.750Z,15.20
2019-02-19T17:49:38.451Z,14.60
2019-02-19T17:52:25.067Z,7.43
2019-02-19T17:55:04.046Z,6.77
2019-02-19T17:57:42.771Z,6.90
2019-02-19T18:00:29.382Z,5.40
2019-02-19T18:03:05.314Z,4.30
2019-02-19T18:05:41.021Z,3.30
2019-02-19T18:08:16.680Z,4.27
2019-02-19T18:10:46.605Z,4.30
2019-02-19T18:13:16.548Z,3.63
2019-02-19T18:15:46.474Z,3.43
2019-02-19T18:18:27.982Z,3.50
2019-02-19T18:20:56.275Z,3.07
2019-02-19T18:23:24.586Z,3.43
2019-02-19T18:25:53.132Z,3.57
2019-02-19T18:28:21.423Z,5.40
2019-02-19T18:30:49.755Z,3.93
2019-02-19T18:33:18.297Z,3.87
2019-02-19T18:35:47.259Z,3.93
2019-02-19T18:38:15.546Z,3.80
2019-02-19T18:40:43.869Z,4.00
2019-02-19T18:43:12.139Z,3.67
2019-02-19T18:45:40.464Z,4.40
2019-02-19T18:48:09.046Z,4.07
2019-02-19T18:50:37.336Z,3.80
2019-02-19T18:53:05.622Z,3.73
2019-02-19T18:55:34.263Z,3.70
2019-02-19T18:58:02.575Z,4.27
2019-02-19T19:00:30.876Z,4.00
2019-02-19T19:02:59.500Z,4.43
2019-02-19T19:05:27.829Z,5.83
2019-02-19T19:07:56.110Z,6.73
2019-02-19T19:10:24.401Z,6.77
2019-02-19T19:12:52.702Z,7.77
2019-02-19T19:15:20.994Z,27.33
2019-02-19T19:17:49.351Z,8.10
2019-02-19T19:20:17.653Z,6.63
2019-02-19T19:22:47.123Z,5.13
2019-02-19T19:25:15.509Z,4.70
2019-02-19T19:27:43.792Z,4.63
2019-02-19T19:30:15.949Z,3.97
2019-02-19T19:32:44.470Z,4.90
2019-02-19T19:35:12.776Z,4.37
2019-02-19T19:37:41.053Z,4.03
2019-02-19T19:40:13.682Z,4.17
2019-02-19T19:42:41.957Z,3.27
2019-02-19T19:45:12.074Z,4.37
2019-02-19T19:47:40.348Z,3.77
2019-02-19T19:50:12.080Z,4.17
2019-02-19T19:52:40.694Z,4.17
2019-02-19T19:55:10.598Z,4.77
2019-02-19T19:57:38.878Z,4.27
2019-02-19T20:00:10.056Z,4.80
2019-02-19T20:02:39.139Z,5.00
2019-02-19T20:05:09.298Z,5.67
2019-02-19T20:07:37.608Z,5.30
2019-02-19T20:10:11.667Z,4.63
2019-02-19T20:12:40.432Z,4.43
2019-02-19T20:15:11.132Z,4.77
2019-02-19T20:17:41.363Z,4.20
2019-02-19T20:20:11.182Z,4.60
2019-02-19T20:22:39.572Z,4.27
2019-02-19T20:25:12.134Z,4.17
2019-02-19T20:27:40.762Z,4.27
2019-02-19T20:30:16.224Z,4.40
2019-02-19T20:32:44.556Z,4.97
2019-02-19T20:35:12.858Z,4.73
2019-02-19T20:37:41.175Z,5.23
2019-02-19T20:40:11.341Z,4.70
2019-02-19T20:42:40.231Z,4.03
2019-02-19T20:45:12.617Z,4.37
2019-02-19T20:47:40.988Z,3.70
2019-02-19T20:50:11.217Z,4.30
2019-02-19T20:52:39.881Z,3.93
2019-02-19T20:55:11.924Z,3.90
2019-02-19T20:57:40.647Z,4.33
2019-02-19T21:00:17.202Z,4.63
2019-02-19T21:02:45.755Z,6.40
2019-02-19T21:05:14.048Z,5.63
2019-02-19T21:07:42.421Z,4.90
2019-02-19T21:10:19.254Z,5.40
2019-02-19T21:12:47.567Z,5.00
2019-02-19T21:15:15.845Z,4.77
2019-02-19T21:17:44.393Z,4.93
2019-02-19T21:20:14.220Z,5.10
2019-02-19T21:22:42.536Z,5.37
2019-02-19T21:25:11.486Z,5.37
2019-02-19T21:27:39.772Z,5.73
2019-02-19T21:30:11.283Z,6.30
2019-02-19T21:32:39.675Z,6.63
2019-02-19T21:35:09.271Z,6.30
2019-02-19T21:37:38.142Z,6.43
2019-02-19T21:40:09.396Z,5.33
2019-02-19T21:42:37.958Z,6.13
2019-02-19T21:45:09.401Z,6.67
2019-02-19T21:47:37.687Z,6.60
2019-02-19T21:50:10.784Z,6.23
2019-02-19T21:52:39.078Z,6.20
2019-02-19T21:55:11.947Z,6.10
2019-02-19T21:57:40.298Z,5.97
2019-02-19T22:00:16.248Z,6.33
2019-02-19T22:02:44.808Z,6.17
2019-02-19T22:05:13.175Z,6.13
2019-02-19T22:07:41.484Z,6.37
2019-02-19T22:10:11.801Z,7.07
2019-02-19T22:12:40.083Z,6.27
2019-02-19T22:15:13.473Z,5.40
2019-02-19T22:17:41.825Z,6.13
2019-02-19T22:20:17.029Z,5.00
2019-02-19T22:22:45.313Z,6.03
2019-02-19T22:25:13.640Z,5.43
2019-02-19T22:27:42.136Z,6.27
2019-02-19T22:30:10.852Z,6.67
2019-02-19T22:32:39.138Z,7.20
2019-02-19T22:35:07.710Z,8.27
2019-02-19T22:37:35.991Z,7.30
2019-02-19T22:40:07.374Z,6.93
2019-02-19T22:42:35.916Z,7.50
2019-02-19T22:45:05.557Z,7.13
2019-02-19T22:47:33.845Z,6.57
2019-02-19T22:50:02.160Z,7.63
2019-02-19T22:52:31.203Z,6.67
2019-02-19T22:55:03.973Z,7.47
2019-02-19T22:57:32.275Z,7.37
2019-02-19T23:00:00.599Z,6.07
2019-02-19T23:02:29.502Z,7.17
2019-02-19T23:04:57.787Z,6.60
2019-02-19T23:07:26.114Z,6.77
2019-02-19T23:09:54.667Z,6.40
2019-02-19T23:12:23.338Z,6.63
2019-02-19T23:14:51.574Z,7.10
2019-02-19T23:17:19.864Z,7.23
2019-02-19T23:19:48.170Z,6.27
2019-02-19T23:22:21.637Z,7.03
2019-02-19T23:24:46.471Z,5.93
2019-02-19T23:27:14.839Z,6.47
2019-02-19T23:29:44.056Z,6.40
2019-02-19T23:32:12.340Z,7.00
2019-02-19T23:34:40.647Z,7.20
2019-02-19T23:37:09.001Z,6.87
2019-02-19T23:39:43.595Z,6.60
2019-02-19T23:42:07.984Z,6.70
2019-02-19T23:44:36.272Z,7.50
2019-02-19T23:47:04.647Z,6.50
2019-02-19T23:49:33.007Z,7.40
2019-02-19T23:52:01.308Z,6.70
2019-02-19T23:54:29.584Z,7.37
2019-02-19T23:56:58.129Z,6.30
2019-02-19T23:59:26.430Z,6.93
